createdAt,value
2022-09-11T00:01:32.001Z,32.03
2022-09-11T00:16:34.545Z,31.64
2022-09-11T00:31:37.111Z,30.78
2022-09-11T00:46:39.504Z,29.6
2022-09-11T01:01:41.893Z,29.12
2022-09-11T01:16:44.256Z,28.22
2022-09-11T01:31:46.645Z,27.37
2022-09-11T01:46:49.191Z,26.77
2022-09-11T02:01:51.607Z,25.8
2022-09-11T02:16:53.969Z,25.3
2022-09-11T02:31:56.276Z,25.17
2022-09-11T02:46:58.609Z,24.35
2022-09-11T03:02:00.974Z,23.9
2022-09-11T03:17:03.333Z,23.32
2022-09-11T03:32:05.598Z,22.69
2022-09-11T03:47:07.932Z,22.53
2022-09-11T04:02:10.293Z,21.89
2022-09-11T04:17:12.679Z,21.49
2022-09-11T04:32:14.918Z,21.58
2022-09-11T04:47:17.244Z,21.55
2022-09-11T05:02:19.647Z,20.53
2022-09-11T05:17:22.011Z,20.18
2022-09-11T05:32:24.359Z,19.69
2022-09-11T05:47:26.863Z,19.7
2022-09-11T06:02:29.262Z,19.27
2022-09-11T06:17:31.802Z,19.13
2022-09-11T06:32:34.087Z,18.79
2022-09-11T06:47:36.361Z,19.05
2022-09-11T07:02:38.694Z,17.72
2022-09-11T07:17:41.043Z,18.26
2022-09-11T07:32:43.277Z,18.18
2022-09-11T07:47:45.582Z,17.58
2022-09-11T08:02:47.884Z,16.72
2022-09-11T08:17:50.235Z,17.52
2022-09-11T08:32:52.585Z,17.14
2022-09-11T08:47:55.041Z,16.81
2022-09-11T09:02:57.370Z,16.65
2022-09-11T09:17:59.988Z,16.47
2022-09-11T09:33:02.512Z,15.54
2022-09-11T09:48:05.062Z,15.34
2022-09-11T10:03:07.568Z,15.19
2022-09-11T10:18:09.902Z,15.06
2022-09-11T10:33:12.227Z,15.02
2022-09-11T10:48:14.521Z,14.78
2022-09-11T11:03:16.857Z,14.78
2022-09-11T11:18:19.104Z,14.12
2022-09-11T11:33:21.434Z,14.36
2022-09-11T11:48:23.789Z,14.36
2022-09-11T12:03:26.214Z,13.82
2022-09-11T12:18:28.579Z,13.67
2022-09-11T12:33:30.880Z,13.72
2022-09-11T12:48:33.440Z,13.49
2022-09-11T13:03:35.923Z,13.27
2022-09-11T13:18:38.255Z,13.42
2022-09-11T13:33:40.995Z,12.82
2022-09-11T13:48:43.338Z,13.26
2022-09-11T14:03:45.653Z,13.24
2022-09-11T14:18:47.957Z,12.94
2022-09-11T14:33:50.370Z,13.62
2022-09-11T14:48:52.655Z,13.95
2022-09-11T15:03:55.291Z,15.04
2022-09-11T15:18:57.639Z,15.53
2022-09-11T15:33:59.960Z,16.13
2022-09-11T15:49:02.586Z,15.24
2022-09-11T16:04:05.126Z,15.94
2022-09-11T16:19:07.634Z,17.75
2022-09-11T16:34:09.979Z,16.59
2022-09-11T16:49:12.290Z,18.05
2022-09-11T17:04:14.700Z,18.08
2022-09-11T17:19:17.222Z,19.24
2022-09-11T17:34:19.493Z,18.93
2022-09-11T17:49:22.007Z,20.41
2022-09-11T18:04:24.281Z,20.35
2022-09-11T18:19:26.612Z,20.29
2022-09-11T18:34:28.998Z,20.99
2022-09-11T18:49:31.276Z,21.42
2022-09-11T19:04:33.614Z,22.28
2022-09-11T19:19:35.989Z,22.49
2022-09-11T19:34:38.892Z,22.5
2022-09-11T19:49:41.306Z,22.41
2022-09-11T20:04:43.580Z,22.65
2022-09-11T20:19:45.901Z,21.81
2022-09-11T20:34:48.222Z,21.88
2022-09-11T20:49:50.615Z,23.51
2022-09-11T21:04:52.960Z,24.56
2022-09-11T21:19:57.421Z,24.36
2022-09-11T21:35:00.007Z,24.46
2022-09-11T21:50:02.607Z,25.25
2022-09-11T22:05:04.958Z,25.23
2022-09-11T22:20:07.313Z,26.74
2022-09-11T22:35:09.524Z,27.41
2022-09-11T22:50:11.920Z,27.27
2022-09-11T23:05:14.260Z,27.49
2022-09-11T23:20:16.484Z,28.09
2022-09-11T23:35:18.718Z,28.52
2022-09-11T23:50:20.968Z,28.19
